Time;durP1;ratioP1;P1;durP2;ratioP2;P2;SDS_P1;SDS_P2;PMS_P1;PMS_P2;Temp;Humidity;BMP_temperature;BMP_pressure;BME280_temperature;BME280_humidity;BME280_pressure;Samples;Min_cycle;Max_cycle;Signal;HPM_P1;HPM_P2
2022/02/22 00:00:24;;;;;;;3.97;1.23;;;7.70;99.90;;;;;;5115203;28;20236;-67
2022/02/22 00:02:51;;;;;;;1.70;1.33;;;7.70;99.90;;;;;;5115352;28;20205;-67
2022/02/22 00:05:18;;;;;;;6.03;1.92;;;7.60;99.90;;;;;;5115394;28;20211;-68
2022/02/22 00:07:45;;;;;;;4.65;1.80;;;7.60;99.90;;;;;;5115473;28;20271;-68
2022/02/22 00:10:15;;;;;;;4.05;1.42;;;7.70;99.90;;;;;;5114803;28;20219;-68
2022/02/22 00:12:41;;;;;;;5.30;3.50;;;7.70;99.90;;;;;;5114870;28;20239;-68
2022/02/22 00:15:09;;;;;;;9.27;4.72;;;7.70;99.90;;;;;;5114958;28;20201;-68
2022/02/22 00:17:39;;;;;;;10.23;5.55;;;7.70;99.90;;;;;;5115380;28;20308;-68
2022/02/22 00:20:07;;;;;;;19.33;11.90;;;7.70;99.90;;;;;;5114472;28;20212;-68
2022/02/22 00:22:35;;;;;;;20.60;11.38;;;7.70;99.90;;;;;;5114758;28;20292;-67
2022/02/22 00:25:02;;;;;;;16.52;7.85;;;7.70;99.90;;;;;;5114695;28;20851;-68
2022/02/22 00:27:30;;;;;;;4.53;2.78;;;7.70;99.90;;;;;;5115013;28;20233;-68
2022/02/22 00:29:57;;;;;;;4.18;2.50;;;7.70;99.90;;;;;;5114359;28;20732;-68
2022/02/22 00:32:23;;;;;;;2.80;1.80;;;7.60;99.90;;;;;;5113436;28;20244;-68
2022/02/22 00:34:51;;;;;;;6.72;3.55;;;7.60;99.90;;;;;;5114745;28;20201;-68
2022/02/22 00:37:17;;;;;;;7.90;5.72;;;7.50;99.90;;;;;;5114640;28;20228;-68
2022/02/22 00:39:44;;;;;;;11.63;6.60;;;7.40;99.90;;;;;;5114582;28;20197;-68
2022/02/22 00:42:11;;;;;;;14.75;6.63;;;7.40;99.90;;;;;;5114781;28;20647;-68
2022/02/22 00:44:39;;;;;;;5.22;3.15;;;7.40;99.90;;;;;;5114630;28;20292;-67
2022/02/22 00:47:07;;;;;;;7.25;3.65;;;7.30;99.90;;;;;;5114819;28;20684;-67
2022/02/22 00:49:34;;;;;;;2.40;1.48;;;7.40;99.90;;;;;;5114499;28;20645;-67
2022/02/22 00:52:01;;;;;;;3.55;1.55;;;7.40;99.90;;;;;;5113843;28;20207;-68
2022/02/22 00:54:28;;;;;;;2.88;1.35;;;7.40;99.90;;;;;;5114774;28;20205;-68
2022/02/22 00:56:55;;;;;;;2.60;1.40;;;7.40;99.90;;;;;;5114425;28;20221;-67
2022/02/22 00:59:22;;;;;;;3.10;1.40;;;7.40;99.90;;;;;;5114284;28;20246;-68
2022/02/22 01:01:51;;;;;;;4.85;2.00;;;7.40;99.90;;;;;;5113828;28;20347;-67
2022/02/22 01:04:17;;;;;;;4.43;2.20;;;7.40;99.90;;;;;;5114021;28;20197;-67
2022/02/22 01:06:45;;;;;;;4.45;1.38;;;7.40;99.90;;;;;;5113988;28;20226;-68
2022/02/22 01:09:13;;;;;;;2.58;1.10;;;7.40;99.90;;;;;;5114452;28;20201;-68
2022/02/22 01:11:41;;;;;;;3.85;1.80;;;7.40;99.90;;;;;;5113719;28;20205;-68
2022/02/22 01:14:08;;;;;;;2.95;1.90;;;7.30;99.90;;;;;;5114082;28;20293;-69
2022/02/22 01:16:35;;;;;;;3.55;1.40;;;7.30;99.90;;;;;;5114092;28;20225;-68
2022/02/22 01:19:03;;;;;;;2.95;1.60;;;7.30;99.90;;;;;;5113681;28;20296;-68
2022/02/22 01:21:31;;;;;;;4.78;1.40;;;7.40;99.90;;;;;;5113617;28;20212;-69
2022/02/22 01:23:59;;;;;;;3.17;1.23;;;7.40;99.90;;;;;;5113836;28;20288;-69
2022/02/22 01:26:26;;;;;;;1.65;1.45;;;7.40;99.90;;;;;;5113868;28;20221;-69
2022/02/22 01:28:53;;;;;;;2.78;1.30;;;7.50;99.90;;;;;;5113738;28;20296;-69
2022/02/22 01:31:20;;;;;;;1.25;1.15;;;7.50;99.90;;;;;;5113484;28;20225;-68
2022/02/22 01:33:47;;;;;;;5.78;1.73;;;7.40;99.90;;;;;;5113515;28;20681;-68
2022/02/22 01:36:15;;;;;;;3.67;1.90;;;7.30;99.90;;;;;;5113739;28;20578;-68
2022/02/22 01:38:42;;;;;;;3.17;1.80;;;7.40;99.90;;;;;;5113967;28;20209;-68
2022/02/22 01:41:09;;;;;;;4.55;1.70;;;7.40;99.90;;;;;;5113058;28;20207;-68
2022/02/22 01:43:40;;;;;;;4.57;1.98;;;7.40;99.90;;;;;;5113481;28;20620;-68
2022/02/22 01:46:07;;;;;;;3.67;1.75;;;7.40;99.90;;;;;;5113632;28;20333;-68
2022/02/22 01:48:34;;;;;;;2.00;1.80;;;7.30;99.90;;;;;;5113668;28;20623;-69
2022/02/22 01:51:01;;;;;;;3.25;1.63;;;7.20;99.90;;;;;;5113423;28;20232;-67
2022/02/22 01:53:29;;;;;;;5.65;1.90;;;7.00;99.90;;;;;;5114413;28;20266;-67
2022/02/22 01:55:56;;;;;;;2.13;1.63;;;7.00;99.90;;;;;;5113988;28;20292;-67
2022/02/22 01:58:23;;;;;;;1.98;1.50;;;7.00;99.90;;;;;;5114439;28;20582;-67
2022/02/22 02:00:50;;;;;;;6.05;2.75;;;7.00;99.90;;;;;;5113948;28;20202;-67
2022/02/22 02:03:17;;;;;;;2.15;1.30;;;6.90;99.90;;;;;;5114282;28;20628;-67
2022/02/22 02:05:44;;;;;;;3.75;1.65;;;6.90;99.90;;;;;;5114007;28;20208;-67
2022/02/22 02:08:12;;;;;;;2.92;1.70;;;6.80;99.90;;;;;;5114161;28;20221;-67
2022/02/22 02:10:41;;;;;;;3.83;2.22;;;6.80;99.90;;;;;;5113730;28;20709;-67
2022/02/22 02:13:08;;;;;;;3.80;1.52;;;6.80;99.90;;;;;;5114365;28;20201;-67
2022/02/22 02:15:35;;;;;;;2.78;1.95;;;6.80;99.90;;;;;;5114038;28;20293;-67
2022/02/22 02:18:02;;;;;;;1.90;1.40;;;6.80;99.90;;;;;;5114087;28;20221;-67
2022/02/22 02:20:29;;;;;;;5.55;1.92;;;6.70;99.90;;;;;;5113772;28;20197;-67
2022/02/22 02:22:57;;;;;;;5.60;1.95;;;6.80;99.90;;;;;;5113920;28;20197;-67
2022/02/22 02:25:24;;;;;;;4.95;1.50;;;6.80;99.90;;;;;;5114007;28;20208;-67
2022/02/22 02:27:51;;;;;;;4.60;1.60;;;6.80;99.90;;;;;;5113580;28;20235;-67
2022/02/22 02:30:18;;;;;;;4.78;1.50;;;6.80;99.90;;;;;;5113768;28;20221;-67
2022/02/22 02:32:45;;;;;;;3.20;1.60;;;6.80;99.90;;;;;;5113959;28;20207;-67
2022/02/22 02:35:12;;;;;;;5.07;1.92;;;6.80;99.90;;;;;;5113952;28;20203;-67
2022/02/22 02:37:40;;;;;;;2.67;1.42;;;6.80;99.90;;;;;;5113935;28;20221;-67
2022/02/22 02:40:11;;;;;;;4.25;1.92;;;6.80;99.90;;;;;;5113641;28;20200;-67
2022/02/22 02:42:41;;;;;;;2.85;1.77;;;6.70;99.90;;;;;;5113843;28;20608;-67
2022/02/22 02:45:09;;;;;;;4.50;2.33;;;6.70;99.90;;;;;;5113936;28;20197;-67
2022/02/22 02:47:36;;;;;;;8.55;2.83;;;6.70;99.90;;;;;;5113798;28;20640;-67
2022/02/22 02:50:04;;;;;;;3.35;1.85;;;6.60;99.90;;;;;;5113501;28;20216;-67
2022/02/22 02:52:31;;;;;;;2.30;1.55;;;6.60;99.90;;;;;;5113769;28;20197;-67
2022/02/22 02:54:58;;;;;;;4.82;2.20;;;6.70;99.90;;;;;;5113628;28;20201;-67
2022/02/22 02:57:27;;;;;;;3.95;1.65;;;6.60;99.90;;;;;;5117519;28;20668;-67
2022/02/22 02:59:55;;;;;;;7.43;1.85;;;6.70;99.90;;;;;;5117346;28;20205;-67
2022/02/22 03:02:22;;;;;;;4.38;2.53;;;6.70;99.90;;;;;;5117774;28;20206;-67
2022/02/22 03:04:49;;;;;;;6.22;2.20;;;6.70;99.90;;;;;;5117681;28;20572;-67
2022/02/22 03:07:16;;;;;;;3.55;1.60;;;6.70;99.90;;;;;;5117373;28;20314;-67
2022/02/22 03:09:43;;;;;;;6.18;2.25;;;6.60;99.90;;;;;;5117294;28;20201;-67
2022/02/22 03:12:10;;;;;;;4.43;2.08;;;6.60;99.90;;;;;;5117785;28;20197;-67
2022/02/22 03:14:38;;;;;;;4.13;1.92;;;6.60;99.90;;;;;;5117475;28;20212;-67
2022/02/22 03:17:05;;;;;;;3.33;1.90;;;6.60;99.90;;;;;;5117197;28;20315;-67
2022/02/22 03:19:32;;;;;;;4.78;2.22;;;6.60;99.90;;;;;;5117471;28;20565;-67
2022/02/22 03:21:59;;;;;;;1.25;1.10;;;6.70;99.90;;;;;;5117153;28;20200;-67
2022/02/22 03:24:25;;;;;;;3.65;2.00;;;6.70;99.90;;;;;;5117029;28;20197;-67
2022/02/22 03:26:52;;;;;;;3.45;1.77;;;6.70;99.90;;;;;;5117136;28;20576;-68
2022/02/22 03:29:19;;;;;;;4.15;1.70;;;6.70;99.90;;;;;;5117175;28;20203;-67
2022/02/22 03:31:47;;;;;;;10.07;2.00;;;6.70;99.90;;;;;;5116992;28;20221;-67
2022/02/22 03:34:14;;;;;;;4.95;2.50;;;6.70;99.90;;;;;;5117140;28;20296;-67
2022/02/22 03:36:41;;;;;;;3.42;2.10;;;6.70;99.90;;;;;;5116886;28;20256;-67
2022/02/22 03:39:08;;;;;;;4.30;1.90;;;6.70;99.90;;;;;;5116943;28;20254;-67
2022/02/22 03:41:35;;;;;;;4.78;1.77;;;6.70;99.90;;;;;;5116797;28;20258;-67
2022/02/22 03:44:02;;;;;;;5.78;1.20;;;6.70;99.90;;;;;;5116742;28;20288;-67
2022/02/22 03:46:28;;;;;;;6.03;1.98;;;6.60;99.90;;;;;;5116679;28;20222;-67
2022/02/22 03:48:57;;;;;;;3.90;1.73;;;6.60;99.90;;;;;;5116779;28;20213;-67
2022/02/22 03:51:23;;;;;;;4.47;2.35;;;6.60;99.90;;;;;;5116429;28;20686;-67
2022/02/22 03:53:50;;;;;;;5.20;1.90;;;6.60;99.90;;;;;;5116737;28;20201;-67
2022/02/22 03:56:17;;;;;;;5.45;1.88;;;6.60;99.90;;;;;;5116285;28;20225;-67
2022/02/22 03:58:44;;;;;;;2.67;2.10;;;6.60;99.90;;;;;;5116711;28;20209;-67
2022/02/22 04:01:11;;;;;;;3.33;1.55;;;6.60;99.90;;;;;;5116168;28;20251;-67
2022/02/22 04:03:38;;;;;;;9.40;2.60;;;6.60;99.90;;;;;;5116512;28;20228;-67
2022/02/22 04:06:06;;;;;;;2.95;1.80;;;6.60;99.90;;;;;;5116632;28;20296;-67
2022/02/22 04:08:33;;;;;;;4.47;2.00;;;6.60;99.90;;;;;;5116509;28;20201;-67
2022/02/22 04:11:00;;;;;;;2.38;1.33;;;6.60;99.90;;;;;;5116148;28;20217;-67
2022/02/22 04:13:27;;;;;;;3.60;2.10;;;6.50;99.90;;;;;;5116313;28;20296;-67
2022/02/22 04:15:53;;;;;;;2.88;2.15;;;6.50;99.90;;;;;;5116292;28;20197;-67
2022/02/22 04:18:20;;;;;;;7.13;3.60;;;6.40;99.90;;;;;;5116181;28;20201;-67
2022/02/22 04:20:47;;;;;;;4.03;1.70;;;6.30;99.90;;;;;;5116013;28;20201;-67
2022/02/22 04:23:16;;;;;;;3.63;2.20;;;6.00;99.90;;;;;;5116014;28;20201;-67
2022/02/22 04:25:42;;;;;;;3.83;2.53;;;5.80;99.90;;;;;;5115989;28;20198;-68
2022/02/22 04:28:10;;;;;;;5.45;2.42;;;5.60;99.90;;;;;;5115865;28;20265;-67
2022/02/22 04:30:36;;;;;;;7.55;2.28;;;5.60;99.90;;;;;;5115535;28;20228;-67
2022/02/22 04:33:03;;;;;;;6.38;2.80;;;5.70;99.90;;;;;;5115671;28;20288;-68
2022/02/22 04:35:30;;;;;;;4.22;2.60;;;5.80;99.90;;;;;;5115896;28;20208;-67
2022/02/22 04:37:57;;;;;;;4.28;2.70;;;5.90;99.90;;;;;;5115843;28;20304;-67
2022/02/22 04:40:26;;;;;;;5.18;2.72;;;6.00;99.90;;;;;;5115540;28;20194;-67
2022/02/22 04:42:53;;;;;;;3.90;2.58;;;5.90;99.90;;;;;;5115998;28;20203;-67
2022/02/22 04:45:20;;;;;;;4.10;2.65;;;5.90;99.90;;;;;;5115575;28;20198;-67
2022/02/22 04:47:47;;;;;;;5.22;3.17;;;5.90;99.90;;;;;;5115581;28;20227;-68
2022/02/22 04:50:16;;;;;;;5.75;3.38;;;5.90;99.90;;;;;;5115308;28;20296;-68
2022/02/22 04:52:42;;;;;;;5.05;3.15;;;5.90;99.90;;;;;;5115613;28;20255;-67
2022/02/22 04:55:10;;;;;;;3.67;2.60;;;6.00;99.90;;;;;;5115473;28;20197;-67
2022/02/22 04:57:38;;;;;;;2.60;2.40;;;6.00;99.90;;;;;;5115393;28;20304;-67
2022/02/22 05:00:08;;;;;;;4.15;2.42;;;6.00;99.90;;;;;;5115470;28;20212;-67
2022/02/22 05:02:35;;;;;;;7.05;3.00;;;6.00;99.90;;;;;;5115306;28;20616;-67
2022/02/22 05:05:02;;;;;;;6.82;2.90;;;6.00;99.90;;;;;;5115145;28;20205;-67
2022/02/22 05:07:29;;;;;;;6.38;3.55;;;6.00;99.90;;;;;;5115043;28;20639;-67
2022/02/22 05:09:56;;;;;;;1.90;1.50;;;6.00;99.90;;;;;;5115077;28;20205;-67
2022/02/22 05:12:23;;;;;;;4.45;2.25;;;6.00;99.90;;;;;;5115362;28;20314;-67
2022/02/22 05:14:51;;;;;;;5.18;2.50;;;6.00;99.90;;;;;;5114870;28;20242;-67
2022/02/22 05:17:18;;;;;;;4.80;2.90;;;6.00;99.90;;;;;;5115155;28;20606;-67
2022/02/22 05:19:44;;;;;;;3.90;2.53;;;6.00;99.90;;;;;;5114139;28;20206;-67
2022/02/22 05:22:11;;;;;;;5.20;2.90;;;6.00;99.90;;;;;;5115036;28;20284;-67
2022/02/22 05:24:38;;;;;;;6.43;2.75;;;6.00;99.90;;;;;;5114963;28;20209;-67
2022/02/22 05:27:05;;;;;;;8.25;5.18;;;6.10;99.90;;;;;;5114579;28;20225;-67
2022/02/22 05:29:32;;;;;;;5.10;3.25;;;6.10;99.90;;;;;;5114981;28;20197;-67
2022/02/22 05:32:01;;;;;;;4.18;2.55;;;6.00;99.90;;;;;;5114737;28;20228;-67
2022/02/22 05:34:28;;;;;;;5.30;3.00;;;6.10;99.90;;;;;;5114882;28;20205;-67
2022/02/22 05:36:57;;;;;;;3.78;2.80;;;6.10;99.90;;;;;;5114768;28;20257;-67
2022/02/22 05:39:23;;;;;;;3.70;2.47;;;6.10;99.90;;;;;;5114698;28;20315;-67
2022/02/22 05:41:50;;;;;;;6.43;2.88;;;6.10;99.90;;;;;;5114499;28;20623;-67
2022/02/22 05:44:17;;;;;;;5.88;2.90;;;6.10;99.90;;;;;;5114702;28;20205;-67
2022/02/22 05:46:44;;;;;;;5.35;2.72;;;6.00;99.90;;;;;;5114413;28;20560;-67
2022/02/22 05:49:12;;;;;;;6.68;2.92;;;6.00;99.90;;;;;;5114588;28;20202;-67
2022/02/22 05:51:39;;;;;;;4.82;2.60;;;6.00;99.90;;;;;;5114249;28;20637;-67
2022/02/22 05:54:06;;;;;;;3.15;2.65;;;6.00;99.90;;;;;;5114354;28;20201;-67
2022/02/22 05:56:32;;;;;;;4.38;2.40;;;6.00;99.90;;;;;;5114433;28;20337;-67
2022/02/22 05:59:02;;;;;;;5.22;2.35;;;6.00;99.90;;;;;;5114381;28;20201;-67
2022/02/22 06:01:29;;;;;;;4.80;2.38;;;6.00;99.90;;;;;;5114170;28;20236;-67
2022/02/22 06:03:55;;;;;;;8.00;3.17;;;6.00;99.90;;;;;;5114312;28;20206;-67
2022/02/22 06:06:24;;;;;;;5.00;2.67;;;5.90;99.90;;;;;;5114207;28;20221;-67
2022/02/22 06:08:51;;;;;;;10.77;5.10;;;5.90;99.90;;;;;;5114312;28;20240;-67
2022/02/22 06:11:17;;;;;;;6.35;2.85;;;5.90;99.90;;;;;;5114184;28;20229;-67
2022/02/22 06:13:44;;;;;;;5.18;2.45;;;5.90;99.90;;;;;;5114087;28;20667;-67
2022/02/22 06:16:11;;;;;;;4.00;3.03;;;5.90;99.90;;;;;;5114024;28;20224;-67
2022/02/22 06:18:38;;;;;;;4.05;2.95;;;5.90;99.90;;;;;;5114164;28;20207;-67
2022/02/22 06:21:04;;;;;;;5.72;2.80;;;5.90;99.90;;;;;;5113678;28;20200;-67
2022/02/22 06:23:33;;;;;;;6.60;3.38;;;5.90;99.90;;;;;;5114025;28;20574;-67
2022/02/22 06:25:59;;;;;;;6.90;3.15;;;5.90;99.90;;;;;;5114095;28;20296;-67
2022/02/22 06:28:26;;;;;;;6.32;2.90;;;5.90;99.90;;;;;;5113911;28;20590;-67
2022/02/22 06:30:53;;;;;;;9.43;3.90;;;6.00;99.90;;;;;;5116654;28;20201;-67
2022/02/22 06:33:20;;;;;;;4.30;2.60;;;6.00;99.90;;;;;;5118153;28;20647;-68
2022/02/22 06:35:47;;;;;;;4.90;2.28;;;6.00;99.90;;;;;;5118059;28;20295;-67
2022/02/22 06:38:13;;;;;;;6.78;3.80;;;6.10;99.90;;;;;;5118331;28;20312;-67
2022/02/22 06:40:42;;;;;;;4.68;3.20;;;6.10;99.90;;;;;;5117975;28;20562;-67
2022/02/22 06:43:08;;;;;;;10.60;3.05;;;6.20;99.90;;;;;;5118014;28;20205;-67
2022/02/22 06:45:35;;;;;;;5.57;3.70;;;6.30;99.90;;;;;;5117925;28;20209;-67
2022/02/22 06:48:02;;;;;;;4.45;2.90;;;6.40;99.90;;;;;;5117975;28;20316;-67
2022/02/22 06:50:29;;;;;;;4.43;3.00;;;6.40;99.90;;;;;;5117478;28;20697;-67
2022/02/22 06:52:56;;;;;;;7.78;3.45;;;6.30;99.90;;;;;;5117802;28;20308;-67
2022/02/22 06:55:23;;;;;;;6.78;3.22;;;6.30;99.90;;;;;;5117855;28;20208;-67
2022/02/22 06:57:53;;;;;;;7.13;3.53;;;6.30;99.90;;;;;;5117755;28;20227;-68
2022/02/22 07:00:21;;;;;;;5.70;3.30;;;6.40;99.90;;;;;;5117578;28;20203;-67
2022/02/22 07:02:48;;;;;;;5.28;2.53;;;6.30;99.90;;;;;;5117706;28;20200;-67
2022/02/22 07:05:18;;;;;;;5.90;3.47;;;6.20;99.90;;;;;;5117689;28;20232;-67
2022/02/22 07:07:45;;;;;;;4.68;3.13;;;6.20;99.90;;;;;;5117358;28;20229;-67
2022/02/22 07:10:12;;;;;;;4.32;3.63;;;6.20;99.90;;;;;;5117278;28;20600;-67
2022/02/22 07:12:39;;;;;;;14.95;7.50;;;6.20;99.90;;;;;;5117355;28;20264;-67
2022/02/22 07:15:08;;;;;;;7.95;5.05;;;6.20;99.90;;;;;;5117527;28;20227;-67
2022/02/22 07:17:45;;;;;;;3.20;2.80;;;6.20;99.90;;;;;;5117614;28;20274;-67
2022/02/22 07:20:13;;;;;;;5.60;3.13;;;6.20;99.90;;;;;;5117247;28;20209;-67
2022/02/22 07:22:40;;;;;;;10.63;3.78;;;6.00;99.90;;;;;;5117321;28;20198;-67
2022/02/22 07:25:08;;;;;;;5.90;3.60;;;6.00;99.90;;;;;;5117286;28;20209;-67
2022/02/22 07:27:35;;;;;;;7.13;3.38;;;6.10;99.90;;;;;;5116899;28;20229;-67
2022/02/22 07:30:01;;;;;;;8.75;3.25;;;6.00;99.90;;;;;;5117020;28;20296;-67
2022/02/22 07:32:30;;;;;;;8.52;3.60;;;6.10;99.90;;;;;;5117083;28;20352;-67
2022/02/22 07:34:57;;;;;;;5.70;3.35;;;6.20;99.90;;;;;;5118914;27;20201;-70
2022/02/22 07:37:23;;;;;;;7.75;3.80;;;6.30;99.90;;;;;;5136609;27;20657;-70
2022/02/22 07:39:50;;;;;;;7.35;3.80;;;6.50;99.90;;;;;;5136182;27;20211;-71
2022/02/22 07:42:17;;;;;;;7.03;2.92;;;6.60;99.90;;;;;;5135869;27;20204;-72
2022/02/22 07:44:44;;;;;;;8.30;3.50;;;6.70;99.90;;;;;;5136072;27;20211;-70
2022/02/22 07:47:11;;;;;;;4.90;3.15;;;6.80;99.90;;;;;;5136113;27;20255;-68
2022/02/22 07:49:39;;;;;;;5.72;2.88;;;6.80;99.90;;;;;;5135851;27;20208;-68
2022/02/22 07:52:06;;;;;;;5.70;3.22;;;6.80;99.90;;;;;;5136128;27;20716;-67
2022/02/22 07:54:33;;;;;;;9.10;3.10;;;6.90;99.90;;;;;;5136276;27;20207;-67
2022/02/22 07:57:01;;;;;;;5.93;3.30;;;6.90;99.90;;;;;;5136244;27;20552;-66
2022/02/22 07:59:27;;;;;;;7.35;3.35;;;6.90;99.90;;;;;;5136447;27;20205;-67
2022/02/22 08:01:54;;;;;;;7.28;3.50;;;6.90;99.90;;;;;;5136030;27;20207;-67
2022/02/22 08:04:25;;;;;;;4.70;3.20;;;6.90;99.90;;;;;;5136174;27;20200;-67
2022/02/22 08:06:53;;;;;;;5.43;3.00;;;7.00;99.90;;;;;;5135770;27;20221;-67
2022/02/22 08:09:20;;;;;;;5.80;2.65;;;7.10;99.90;;;;;;5135875;27;20207;-67
2022/02/22 08:11:48;;;;;;;4.30;2.97;;;7.00;99.90;;;;;;5135609;27;20231;-67
2022/02/22 08:14:14;;;;;;;4.68;2.65;;;7.20;99.90;;;;;;5136058;27;20271;-67
2022/02/22 08:16:42;;;;;;;8.82;3.88;;;7.30;99.90;;;;;;5135973;27;20256;-67
2022/02/22 08:19:09;;;;;;;7.55;3.08;;;7.30;99.90;;;;;;5135848;27;20292;-67
2022/02/22 08:21:36;;;;;;;3.38;2.30;;;7.40;99.90;;;;;;5135716;27;20203;-69
2022/02/22 08:24:05;;;;;;;7.07;3.15;;;7.50;99.90;;;;;;5135302;27;20223;-67
2022/02/22 08:26:32;;;;;;;2.85;2.10;;;7.60;99.90;;;;;;5135600;27;20243;-68
2022/02/22 08:28:58;;;;;;;5.53;2.33;;;7.70;99.90;;;;;;5135649;27;20201;-68
2022/02/22 08:31:26;;;;;;;6.53;2.55;;;7.70;99.90;;;;;;5135664;27;20205;-68
2022/02/22 08:33:58;;;;;;;4.97;2.60;;;7.70;99.90;;;;;;5135769;27;20201;-68
2022/02/22 08:36:27;;;;;;;5.28;2.65;;;7.80;99.90;;;;;;5135524;27;20221;-68
2022/02/22 08:38:54;;;;;;;6.07;2.95;;;7.90;99.90;;;;;;5136460;27;20208;-67
2022/02/22 08:41:23;;;;;;;4.65;2.88;;;8.00;99.90;;;;;;5136467;27;20196;-68
2022/02/22 08:43:50;;;;;;;4.30;2.35;;;8.10;99.90;;;;;;5136263;27;20205;-67
2022/02/22 08:46:17;;;;;;;5.00;2.28;;;8.10;99.90;;;;;;5136372;27;20220;-67
2022/02/22 08:48:44;;;;;;;6.47;3.17;;;8.10;99.90;;;;;;5136747;27;20204;-67
2022/02/22 08:51:11;;;;;;;5.80;3.10;;;8.20;99.90;;;;;;5136052;27;20224;-67
2022/02/22 08:53:38;;;;;;;6.68;3.42;;;8.30;99.90;;;;;;5135103;27;20231;-67
2022/02/22 08:56:05;;;;;;;8.32;2.67;;;8.30;99.90;;;;;;5135930;27;20204;-67
2022/02/22 08:58:34;;;;;;;5.13;3.00;;;8.30;99.90;;;;;;5135840;27;20201;-67
2022/02/22 09:01:01;;;;;;;6.00;2.60;;;8.40;99.90;;;;;;5135684;27;20207;-67
2022/02/22 09:03:28;;;;;;;7.40;3.15;;;8.40;99.90;;;;;;5136053;27;20196;-67
2022/02/22 09:05:55;;;;;;;3.75;1.80;;;8.30;99.90;;;;;;5135594;27;20204;-67
2022/02/22 09:08:22;;;;;;;4.00;2.63;;;8.20;99.90;;;;;;5136056;27;20201;-67
2022/02/22 09:10:49;;;;;;;4.63;3.00;;;8.20;99.90;;;;;;5135752;27;20201;-67
2022/02/22 09:13:17;;;;;;;3.78;2.63;;;8.20;99.90;;;;;;5135644;27;20224;-67
2022/02/22 09:15:45;;;;;;;4.72;2.33;;;8.20;99.90;;;;;;5135825;27;20291;-67
2022/02/22 09:18:12;;;;;;;8.15;2.80;;;8.30;99.90;;;;;;5135675;27;20224;-67
2022/02/22 09:20:39;;;;;;;7.78;3.80;;;8.20;99.90;;;;;;5135473;27;20200;-67
2022/02/22 09:23:07;;;;;;;7.80;5.20;;;8.20;99.90;;;;;;5135725;27;20223;-67
2022/02/22 09:25:35;;;;;;;5.50;3.30;;;8.30;99.90;;;;;;5135773;27;20201;-67
2022/02/22 09:28:04;;;;;;;3.65;2.30;;;8.20;99.90;;;;;;5135253;27;20244;-67
2022/02/22 09:30:33;;;;;;;8.82;5.43;;;8.20;99.90;;;;;;5135198;27;20678;-67
2022/02/22 09:33:02;;;;;;;6.60;3.10;;;8.30;99.90;;;;;;5135407;27;20593;-67
2022/02/22 09:35:30;;;;;;;3.72;2.97;;;8.30;99.90;;;;;;5135469;27;20204;-67
2022/02/22 09:37:58;;;;;;;4.13;2.08;;;8.40;99.90;;;;;;5135388;27;20231;-67
2022/02/22 09:40:27;;;;;;;4.68;2.00;;;8.50;99.90;;;;;;5135098;27;20235;-67
2022/02/22 09:42:54;;;;;;;4.05;1.70;;;8.50;99.90;;;;;;5135307;27;20239;-67
2022/02/22 09:45:22;;;;;;;4.65;2.17;;;8.40;99.90;;;;;;5135201;27;20207;-67
2022/02/22 09:47:50;;;;;;;4.00;2.50;;;8.40;99.90;;;;;;5135255;27;20574;-67
2022/02/22 09:50:18;;;;;;;5.65;2.13;;;8.40;99.90;;;;;;5135255;27;20197;-67
2022/02/22 09:52:45;;;;;;;5.70;1.73;;;8.50;99.90;;;;;;5135041;27;20262;-67
2022/02/22 09:55:12;;;;;;;4.10;1.90;;;8.50;99.90;;;;;;5135015;27;20197;-67
2022/02/22 09:57:39;;;;;;;5.20;2.53;;;8.50;99.90;;;;;;5135220;27;20227;-67
2022/02/22 10:00:17;;;;;;;6.38;2.35;;;8.50;99.90;;;;;;5134798;27;20287;-67
2022/02/22 10:02:43;;;;;;;9.18;2.10;;;8.60;99.90;;;;;;5135098;27;20554;-67
2022/02/22 10:05:15;;;;;;;4.13;2.13;;;8.60;99.90;;;;;;5134907;27;20205;-67
2022/02/22 10:08:02;;;;;;;2.97;1.98;;;8.60;99.90;;;;;;5134593;27;20793;-67
2022/02/22 10:10:37;;;;;;;5.00;2.58;;;8.60;99.90;;;;;;5134658;27;20212;-67
2022/02/22 10:13:05;;;;;;;4.43;2.00;;;8.60;99.90;;;;;;5135171;27;20223;-67
2022/02/22 10:15:38;;;;;;;3.70;1.92;;;8.70;99.90;;;;;;5134781;27;20320;-67
2022/02/22 10:18:05;;;;;;;3.83;2.15;;;8.60;99.90;;;;;;5134980;27;20563;-67
2022/02/22 10:20:32;;;;;;;5.68;2.65;;;8.80;99.90;;;;;;5134532;27;20569;-67
2022/02/22 10:22:59;;;;;;;6.43;2.50;;;9.00;99.90;;;;;;5134656;27;20566;-67
2022/02/22 10:25:27;;;;;;;3.92;2.08;;;9.20;99.90;;;;;;5134383;27;20658;-67
2022/02/22 10:27:55;;;;;;;4.78;2.25;;;9.30;99.90;;;;;;5134552;27;20232;-67
2022/02/22 10:30:38;;;;;;;5.60;2.20;;;9.30;99.90;;;;;;5134404;27;20200;-67
2022/02/22 10:33:12;;;;;;;2.92;2.15;;;9.30;99.90;;;;;;5134603;27;20213;-67
2022/02/22 10:35:39;;;;;;;5.63;2.85;;;9.20;99.90;;;;;;5134679;27;20208;-67
2022/02/22 10:38:15;;;;;;;3.47;2.58;;;9.10;99.90;;;;;;5134635;27;20337;-67
2022/02/22 10:40:50;;;;;;;6.90;2.90;;;9.00;99.90;;;;;;5134281;27;20231;-67
2022/02/22 10:43:23;;;;;;;5.07;3.00;;;9.10;99.90;;;;;;5134611;27;20200;-67
2022/02/22 10:45:50;;;;;;;6.90;2.50;;;9.20;99.90;;;;;;5134432;27;20207;-67
2022/02/22 10:48:35;;;;;;;3.28;2.63;;;9.20;99.90;;;;;;5134475;27;20207;-67
2022/02/22 10:51:04;;;;;;;5.25;2.70;;;9.20;99.90;;;;;;5134535;27;20205;-67
2022/02/22 10:53:34;;;;;;;3.95;2.50;;;9.40;99.90;;;;;;5134394;27;20248;-67
2022/02/22 10:56:04;;;;;;;3.50;2.20;;;9.40;99.90;;;;;;5134333;27;20236;-67
2022/02/22 10:58:32;;;;;;;6.30;2.70;;;9.70;99.90;;;;;;5134812;27;20205;-67
2022/02/22 11:00:59;;;;;;;6.00;2.63;;;9.70;99.90;;;;;;5134197;27;20201;-67
2022/02/22 11:03:26;;;;;;;6.13;2.70;;;9.90;99.90;;;;;;5134302;27;20197;-67
2022/02/22 11:05:53;;;;;;;4.45;2.67;;;10.00;99.70;;;;;;5134383;27;20201;-67
2022/02/22 11:08:27;;;;;;;4.70;2.70;;;10.00;99.90;;;;;;5134096;27;20292;-67
2022/02/22 11:11:01;;;;;;;3.15;2.20;;;10.00;99.40;;;;;;5133910;27;20249;-67
2022/02/22 11:13:31;;;;;;;4.55;2.80;;;10.00;99.50;;;;;;5134157;27;20585;-67
2022/02/22 11:16:12;;;;;;;8.18;3.28;;;10.00;99.60;;;;;;5134289;27;20204;-67
2022/02/22 11:18:45;;;;;;;11.02;5.80;;;9.90;99.90;;;;;;5137946;27;20196;-67
2022/02/22 11:21:12;;;;;;;6.03;2.55;;;10.00;99.90;;;;;;5137494;27;20207;-67
2022/02/22 11:23:39;;;;;;;4.00;2.78;;;10.00;99.90;;;;;;5138040;27;20288;-67
2022/02/22 11:26:10;;;;;;;4.00;2.50;;;10.00;99.60;;;;;;5137680;27;20200;-67
2022/02/22 11:28:41;;;;;;;4.60;2.95;;;10.00;99.90;;;;;;5137971;27;20219;-67
2022/02/22 11:31:11;;;;;;;4.68;2.65;;;10.10;99.90;;;;;;5137837;27;20611;-67
2022/02/22 11:33:39;;;;;;;4.97;2.30;;;10.10;99.30;;;;;;5137756;27;20277;-67
2022/02/22 11:36:08;;;;;;;6.90;3.20;;;10.00;99.50;;;;;;5137472;27;20292;-67
2022/02/22 11:38:41;;;;;;;4.90;2.90;;;10.10;99.80;;;;;;5137751;27;20204;-67
2022/02/22 11:41:18;;;;;;;4.28;2.50;;;10.20;99.00;;;;;;5137456;27;20291;-67
2022/02/22 11:43:56;;;;;;;4.88;2.63;;;10.20;98.90;;;;;;5137633;27;20203;-67
2022/02/22 11:46:40;;;;;;;7.03;3.20;;;10.30;99.00;;;;;;5137506;27;20308;-67
2022/02/22 11:49:09;;;;;;;4.10;2.90;;;10.30;98.80;;;;;;5137625;27;20554;-67
2022/02/22 11:51:44;;;;;;;3.95;2.40;;;10.50;98.70;;;;;;5137183;27;20672;-67
2022/02/22 11:54:13;;;;;;;6.18;2.72;;;10.50;98.30;;;;;;5137417;27;20227;-67
2022/02/22 11:56:42;;;;;;;5.85;3.00;;;10.40;98.80;;;;;;5137260;27;20230;-67
2022/02/22 11:59:18;;;;;;;5.55;2.80;;;10.30;98.70;;;;;;5137318;27;20642;-67
2022/02/22 12:01:45;;;;;;;3.95;2.78;;;10.20;98.50;;;;;;5137151;27;20200;-67
2022/02/22 12:04:20;;;;;;;3.25;2.42;;;10.20;99.30;;;;;;5137093;27;20197;-67
2022/02/22 12:06:48;;;;;;;6.18;2.55;;;10.20;99.10;;;;;;5137050;27;20216;-67
2022/02/22 12:09:15;;;;;;;4.70;2.83;;;10.20;98.90;;;;;;5137156;27;20204;-67
2022/02/22 12:11:42;;;;;;;4.65;2.58;;;10.30;99.10;;;;;;5136891;27;20592;-67
2022/02/22 12:14:14;;;;;;;3.30;2.40;;;10.40;98.90;;;;;;5137248;27;20224;-67
2022/02/22 12:16:44;;;;;;;5.57;3.95;;;10.50;98.50;;;;;;5136694;27;20709;-67
2022/02/22 12:19:15;;;;;;;3.40;2.42;;;10.60;98.40;;;;;;5137041;27;20548;-67
2022/02/22 12:21:46;;;;;;;6.70;2.95;;;10.70;97.50;;;;;;5136785;27;20296;-67
2022/02/22 12:24:15;;;;;;;5.22;2.40;;;10.70;97.90;;;;;;5136936;27;20287;-67
2022/02/22 12:26:42;;;;;;;4.43;2.60;;;10.60;97.90;;;;;;5136390;27;20225;-67
2022/02/22 12:29:09;;;;;;;5.88;2.78;;;10.50;98.10;;;;;;5136730;27;20187;-67
2022/02/22 12:31:39;;;;;;;4.68;2.83;;;10.40;97.70;;;;;;5136667;27;20204;-67
2022/02/22 12:34:09;;;;;;;3.47;2.60;;;10.40;98.10;;;;;;5136532;27;20265;-67
2022/02/22 12:36:37;;;;;;;4.13;2.35;;;10.50;98.20;;;;;;5136876;27;20221;-67
2022/02/22 12:39:06;;;;;;;5.93;2.78;;;10.50;98.00;;;;;;5136455;27;20197;-67
2022/02/22 12:41:35;;;;;;;6.55;2.60;;;10.50;98.00;;;;;;5136361;27;20205;-67
2022/02/22 12:44:06;;;;;;;7.00;2.65;;;10.60;98.00;;;;;;5136505;27;20285;-67
2022/02/22 12:46:33;;;;;;;8.27;2.80;;;10.50;97.70;;;;;;5136464;27;20228;-67
2022/02/22 12:49:04;;;;;;;5.55;3.15;;;10.60;98.00;;;;;;5136370;27;20207;-67
2022/02/22 12:51:33;;;;;;;5.68;2.50;;;10.60;97.30;;;;;;5136324;27;20201;-67
2022/02/22 12:54:04;;;;;;;4.78;2.63;;;10.70;97.20;;;;;;5136012;27;20757;-67
2022/02/22 12:56:34;;;;;;;8.80;2.50;;;10.60;97.40;;;;;;5136071;27;20559;-67
2022/02/22 12:59:01;;;;;;;7.47;2.40;;;10.70;97.20;;;;;;5135800;27;20205;-67